createdAt,value
2023-02-09T00:02:48.433Z,-4.0829
2023-02-09T00:07:49.339Z,-4.15105
2023-02-09T00:12:50.259Z,-4.1869
2023-02-09T00:17:51.221Z,-4.29478
2023-02-09T00:22:52.186Z,-4.40976
2023-02-09T00:27:53.250Z,-4.43269
2023-02-09T00:32:54.198Z,-4.45433
2023-02-09T00:37:55.122Z,-4.54638
2023-02-09T00:42:56.034Z,-4.60872
2023-02-09T00:47:56.984Z,-4.61712
2023-02-09T00:52:57.901Z,-4.65426
2023-02-09T00:57:58.833Z,-4.77312
2023-02-09T01:02:59.796Z,-4.75794
2023-02-09T01:08:00.730Z,-4.85871
2023-02-09T01:13:01.641Z,-4.83158
2023-02-09T01:18:02.620Z,-4.78249
2023-02-09T01:23:03.634Z,-4.7967
2023-02-09T01:28:04.727Z,-4.82964
2023-02-09T01:33:05.690Z,-4.85355
2023-02-09T01:38:06.627Z,-4.82771
2023-02-09T01:43:07.549Z,-4.88326
2023-02-09T01:48:08.470Z,-4.94883
2023-02-09T01:53:09.396Z,-4.97628
2023-02-09T01:58:10.368Z,-5.01859
2023-02-09T02:03:11.318Z,-5.07124
2023-02-09T02:08:12.270Z,-5.1129
2023-02-09T02:13:13.155Z,-5.17847
2023-02-09T02:18:14.091Z,-5.18816
2023-02-09T02:23:15.036Z,-5.23273
2023-02-09T02:28:16.015Z,-5.24856
2023-02-09T02:33:17.008Z,-5.25954
2023-02-09T02:38:17.943Z,-5.25243
2023-02-09T02:43:18.874Z,-5.33383
2023-02-09T02:48:19.828Z,-5.37291
2023-02-09T02:53:20.929Z,-5.4782
2023-02-09T02:58:21.869Z,-5.47432
2023-02-09T03:03:22.862Z,-5.41748
2023-02-09T03:08:24.000Z,-5.44364
2023-02-09T03:13:25.767Z,-5.43331
2023-02-09T03:18:27.033Z,-5.44429
2023-02-09T03:23:28.112Z,-5.47659
2023-02-09T03:28:29.166Z,-5.47788
2023-02-09T03:33:30.147Z,-5.52051
2023-02-09T03:38:31.081Z,-5.49435
2023-02-09T03:43:31.995Z,-5.49435
2023-02-09T03:48:33.087Z,-5.50242
2023-02-09T03:53:34.042Z,-5.5499
2023-02-09T03:58:35.073Z,-5.53149
2023-02-09T04:03:35.986Z,-5.54732
2023-02-09T04:08:37.083Z,-5.56541
2023-02-09T04:13:38.020Z,-5.64454
2023-02-09T04:18:38.958Z,-5.59867
2023-02-09T04:23:39.926Z,-5.53343
2023-02-09T04:28:40.971Z,-5.53634
2023-02-09T04:33:41.940Z,-5.59577
2023-02-09T04:38:42.872Z,-5.62548
2023-02-09T04:43:43.819Z,-5.65875
2023-02-09T04:48:44.778Z,-5.64938
2023-02-09T04:53:45.713Z,-5.59318
2023-02-09T04:58:46.714Z,-5.63905
2023-02-09T05:03:47.704Z,-5.69008
2023-02-09T05:08:48.780Z,-5.68297
2023-02-09T05:13:49.716Z,-5.64777
2023-02-09T05:18:50.648Z,-5.63323
2023-02-09T05:23:51.578Z,-5.67877
2023-02-09T05:28:52.558Z,-5.65778
2023-02-09T05:33:53.527Z,-5.66908
2023-02-09T05:38:54.447Z,-5.68653
2023-02-09T05:43:55.363Z,-5.77179
2023-02-09T05:48:56.441Z,-5.87192
2023-02-09T05:53:57.370Z,-5.88225
2023-02-09T05:58:58.303Z,-5.89065
2023-02-09T06:03:59.216Z,-5.88419
2023-02-09T06:09:00.161Z,-5.92037
2023-02-09T06:14:01.126Z,-5.96268
2023-02-09T06:19:02.188Z,-5.92812
2023-02-09T06:24:03.105Z,-5.96365
2023-02-09T06:29:04.076Z,-5.96558
2023-02-09T06:34:04.980Z,-5.91035
2023-02-09T06:39:05.921Z,-5.90066
2023-02-09T06:44:06.864Z,-5.93038
2023-02-09T06:49:07.774Z,-5.91584
2023-02-09T06:54:08.783Z,-5.85286
2023-02-09T06:59:09.669Z,-5.77405
2023-02-09T07:04:10.567Z,-5.66876
2023-02-09T07:09:11.554Z,-5.58382
2023-02-09T07:14:12.496Z,-5.54409
2023-02-09T07:19:13.452Z,-5.43201
2023-02-09T07:24:14.362Z,-5.36839
2023-02-09T07:29:15.322Z,-5.29894
2023-02-09T07:34:16.224Z,-5.2056
2023-02-09T07:39:17.214Z,-5.1704
2023-02-09T07:44:18.368Z,-5.08707
2023-02-09T07:49:19.379Z,-4.99211
2023-02-09T07:54:20.318Z,-4.87389
2023-02-09T07:59:21.264Z,-4.75471
2023-02-09T08:04:22.187Z,-4.6
2023-02-09T08:09:23.120Z,-4.4075
2023-02-09T08:14:24.270Z,-4.37229
2023-02-09T08:19:25.519Z,-4.2628
2023-02-09T08:24:26.693Z,-4.09905
2023-02-09T08:29:27.662Z,-3.84582
2023-02-09T08:34:28.628Z,-3.8048
2023-02-09T08:39:29.566Z,-3.76895
2023-02-09T08:44:30.495Z,-3.5477
2023-02-09T08:49:31.805Z,-3.403
2023-02-09T08:54:32.730Z,-3.20565
2023-02-09T08:59:33.654Z,-3.02897
2023-02-09T09:04:34.597Z,-2.82549
2023-02-09T09:09:35.562Z,-2.64364
2023-02-09T09:14:36.478Z,-2.39461
2023-02-09T09:19:37.415Z,-2.16399
2023-02-09T09:24:38.345Z,-1.98925
2023-02-09T09:29:39.317Z,-1.80741
2023-02-09T09:34:40.237Z,-1.64849
2023-02-09T09:39:41.235Z,-1.34487
2023-02-09T09:44:42.172Z,-0.4508
2023-02-09T09:49:43.125Z,5.18221
2023-02-09T09:54:44.063Z,11.65128
2023-02-09T09:59:44.996Z,13.94881
2023-02-09T10:04:45.968Z,17.39972
2023-02-09T10:09:46.929Z,17.74476
2023-02-09T10:14:48.016Z,16.45702
2023-02-09T10:19:48.954Z,13.75077
2023-02-09T10:24:49.866Z,13.0953
2023-02-09T10:29:50.922Z,14.16105
2023-02-09T10:34:51.833Z,12.93733
2023-02-09T10:39:52.794Z,13.28009
2023-02-09T10:44:53.699Z,13.41965
2023-02-09T10:49:54.642Z,12.75449
2023-02-09T10:54:55.555Z,12.17106
2023-02-09T10:59:56.581Z,11.05106
2023-02-09T11:04:57.501Z,11.1567
2023-02-09T11:09:58.456Z,11.05494
2023-02-09T11:14:59.427Z,10.51772
2023-02-09T11:20:00.377Z,9.88424
2023-02-09T11:25:01.329Z,8.47645
2023-02-09T11:30:02.384Z,7.97542
2023-02-09T11:35:03.318Z,8.05457
2023-02-09T11:40:04.258Z,8.26874
2023-02-09T11:45:07.320Z,7.53352
2023-02-09T11:50:09.626Z,8.38535
2023-02-09T11:55:10.541Z,8.98006
2023-02-09T12:00:11.463Z,8.501
2023-02-09T12:05:12.420Z,9.36512
2023-02-09T12:10:13.437Z,10.27318
2023-02-09T12:15:14.359Z,12.2095
2023-02-09T12:20:15.300Z,13.3447
2023-02-09T12:25:16.236Z,12.96253
2023-02-09T12:30:17.192Z,11.44001
2023-02-09T12:35:18.196Z,12.07835
2023-02-09T12:40:19.122Z,12.55387
2023-02-09T12:45:20.020Z,13.13601
2023-02-09T12:50:20.971Z,13.09918
2023-02-09T12:55:21.860Z,13.41448
2023-02-09T13:00:22.797Z,14.85304
2023-02-09T13:05:23.883Z,15.42
2023-02-09T13:10:25.103Z,15.87325
2023-02-09T13:15:26.344Z,14.875
2023-02-09T13:20:27.284Z,11.70394
2023-02-09T13:25:28.184Z,8.95551
2023-02-09T13:30:29.140Z,8.13985
2023-02-09T13:35:30.091Z,7.04639
2023-02-09T13:40:31.012Z,6.12931
2023-02-09T13:45:32.167Z,5.63089
2023-02-09T13:50:33.104Z,5.24455
2023-02-09T13:55:33.989Z,4.89181
2023-02-09T14:00:34.973Z,4.76066
2023-02-09T14:05:35.986Z,4.50516
2023-02-09T14:10:36.928Z,4.249
2023-02-09T14:15:37.829Z,4.06682
2023-02-09T14:20:39.478Z,3.9725
2023-02-09T14:25:40.406Z,3.89271
2023-02-09T14:30:41.468Z,3.88722
2023-02-09T14:35:42.474Z,3.59101
2023-02-09T14:40:43.533Z,3.44663
2023-02-09T14:45:44.959Z,3.28253
2023-02-09T14:50:46.149Z,3.21599
2023-02-09T14:55:47.582Z,3.16431
2023-02-09T15:00:48.760Z,2.97728
2023-02-09T15:05:49.694Z,2.79575
2023-02-09T15:10:50.635Z,2.69303
2023-02-09T15:15:51.646Z,2.50019
2023-02-09T15:20:52.642Z,2.37357
2023-02-09T15:25:53.548Z,2.19592
2023-02-09T15:30:54.498Z,1.96335
2023-02-09T15:35:57.544Z,1.78246
2023-02-09T15:40:59.272Z,1.71334
2023-02-09T15:46:00.429Z,1.59382
2023-02-09T15:51:01.386Z,1.34091
2023-02-09T15:56:02.372Z,1.16261
2023-02-09T16:01:03.368Z,1.16487
2023-02-09T16:06:04.273Z,1.11609
2023-02-09T16:11:05.269Z,1.01531
2023-02-09T16:16:16.646Z,0.91421
2023-02-09T16:21:18.123Z,0.82894
2023-02-09T16:26:19.072Z,0.63191
2023-02-09T16:31:20.075Z,0.41129
2023-02-09T16:36:21.040Z,0.19262
2023-02-09T16:41:21.984Z,0.09636
2023-02-09T16:46:22.988Z,0.05599
2023-02-09T16:51:23.921Z,0.10476
2023-02-09T16:56:25.164Z,0.10896
2023-02-09T17:01:26.537Z,0.01367
2023-02-09T17:06:28.064Z,-0.05674
2023-02-09T17:11:29.116Z,-0.09259
2023-02-09T17:16:30.178Z,-0.10422
2023-02-09T17:21:31.293Z,-0.07321
2023-02-09T17:26:32.223Z,-0.2176
2023-02-09T17:31:46.997Z,-0.37555
2023-02-09T17:36:53.243Z,-0.36973
2023-02-09T17:41:54.196Z,-0.36618
2023-02-09T17:46:55.140Z,-0.45274
2023-02-09T17:51:56.318Z,-0.53608
2023-02-09T17:56:57.256Z,-0.54803
2023-02-09T18:01:58.606Z,-0.65365
2023-02-09T18:06:59.498Z,-0.67465
2023-02-09T18:12:00.472Z,-0.69306
2023-02-09T18:17:03.013Z,-0.69209
2023-02-09T18:22:04.181Z,-0.7625
2023-02-09T18:27:05.116Z,-0.91011
2023-02-09T18:32:06.057Z,-0.94629
2023-02-09T18:37:06.941Z,-0.99086
2023-02-09T18:42:07.848Z,-1.06968
2023-02-09T18:47:08.806Z,-1.12588
2023-02-09T18:52:09.755Z,-1.18854
2023-02-09T18:57:10.665Z,-1.17433
2023-02-09T19:02:11.606Z,-1.122
2023-02-09T19:07:12.609Z,-1.20178
2023-02-09T19:12:13.548Z,-1.23634
2023-02-09T19:17:14.472Z,-1.33389
2023-02-09T19:22:15.383Z,-1.3481
2023-02-09T19:27:16.307Z,-1.42433
2023-02-09T19:32:17.252Z,-1.51897
2023-02-09T19:37:18.193Z,-1.50508
2023-02-09T19:42:19.195Z,-1.49894
2023-02-09T19:47:20.155Z,-1.61296
2023-02-09T19:52:21.124Z,-1.64784
2023-02-09T19:57:22.052Z,-1.72827
2023-02-09T20:02:22.971Z,-1.74119
2023-02-09T20:07:23.864Z,-1.72213
2023-02-09T20:12:25.098Z,-1.72213
2023-02-09T20:17:26.699Z,-1.76283
2023-02-09T20:22:27.944Z,-1.76606
2023-02-09T20:27:28.891Z,-1.71987
2023-02-09T20:32:29.906Z,-1.6908
2023-02-09T20:37:30.886Z,-1.73764
2023-02-09T20:42:31.813Z,-1.77963
2023-02-09T20:47:32.769Z,-1.86522
2023-02-09T20:52:33.712Z,-1.96503
2023-02-09T20:57:34.632Z,-2.01186
2023-02-09T21:02:35.645Z,-2.04287
2023-02-09T21:07:36.628Z,-2.08647
2023-02-09T21:12:37.586Z,-2.0952
2023-02-09T21:17:38.501Z,-2.07194
2023-02-09T21:22:39.436Z,-2.14881
2023-02-09T21:27:40.388Z,-2.15786
2023-02-09T21:32:41.441Z,-2.19113
2023-02-09T21:37:42.449Z,-2.21761
2023-02-09T21:42:43.404Z,-2.21793
2023-02-09T21:47:44.384Z,-2.20824
2023-02-09T21:52:45.589Z,-2.23376
2023-02-09T21:57:46.523Z,-2.24959
2023-02-09T22:02:47.483Z,-2.2596
2023-02-09T22:07:48.543Z,-2.33195
2023-02-09T22:12:49.481Z,-2.33906
2023-02-09T22:17:50.415Z,-2.3355
2023-02-09T22:22:51.351Z,-2.35488
2023-02-09T22:27:52.304Z,-2.32097
2023-02-09T22:32:53.323Z,-2.28576
2023-02-09T22:37:56.252Z,-2.2118
2023-02-09T22:42:57.184Z,-2.13299
2023-02-09T22:47:58.088Z,-2.05773
2023-02-09T22:52:59.077Z,-1.97569
2023-02-09T22:58:00.034Z,-1.88719
2023-02-09T23:03:01.006Z,-1.695
2023-02-09T23:08:02.007Z,-1.57775
2023-02-09T23:13:02.967Z,-1.54125
2023-02-09T23:18:03.920Z,-1.36457
2023-02-09T23:23:04.827Z,-1.19952
2023-02-09T23:28:05.876Z,-1.1543
2023-02-09T23:33:06.851Z,-1.08712
2023-02-09T23:38:07.753Z,-1.04157
2023-02-09T23:43:08.810Z,-1.09455
2023-02-09T23:48:09.731Z,-1.11393
2023-02-09T23:53:10.656Z,-1.04093
2023-02-09T23:58:11.571Z,-1.05385
